Terminal Aerodrome Forecast
Issued by NWS

Home | Current Version | Previous Version | Text Only | Print | Product List | Glossary On
Versions: 1 2 3 4 5 6 7 8 9 10 11 12 13 14 15 16 17 18 19 20 21
000
FTUS45 KFGZ 301700
TAFPGA
TAF
KPGA 301732Z 3018/3118 04009KT 6SM -RA SCT015 OVC030
      TEMPO 3019/3023 3SM -RA BR BKN015 OVC025
     FM310800 VRB05KT P6SM VCFG SCT005 BKN025
      TEMPO 3109/3113 1SM BR OVC004
      AMD NOT SKED=

USA.gov is the U.S. government's official web portal to all federal, state and local government web resources and services.